Time;durP1;ratioP1;P1;durP2;ratioP2;P2;SDS_P1;SDS_P2;PMS_P1;PMS_P2;Temp;Humidity;BMP_temperature;BMP_pressure;BME280_temperature;BME280_humidity;BME280_pressure;Samples;Min_cycle;Max_cycle;Signal;HPM_P1;HPM_P2
2024/03/10 00:00:16;;;;;;;3.35;0.90;;;25.60;28.90;;;;;;5105419;27;20072;-48
2024/03/10 00:02:43;;;;;;;7.10;0.98;;;25.60;28.60;;;;;;5108695;28;20068;-45
2024/03/10 00:05:13;;;;;;;11.45;1.05;;;25.80;28.90;;;;;;5105813;27;20064;-48
2024/03/10 00:07:41;;;;;;;2.63;0.90;;;25.60;28.90;;;;;;5110849;28;20095;-46
2024/03/10 00:10:10;;;;;;;8.07;0.90;;;25.40;28.90;;;;;;5108044;28;20430;-46
2024/03/10 00:12:37;;;;;;;3.72;0.88;;;25.10;28.60;;;;;;5101315;28;20600;-47
2024/03/10 00:15:04;;;;;;;6.53;1.02;;;25.20;28.70;;;;;;5110415;27;20078;-46
2024/03/10 00:17:30;;;;;;;4.53;1.30;;;25.20;29.20;;;;;;5104575;28;20087;-48
2024/03/10 00:19:57;;;;;;;2.20;0.90;;;25.10;29.70;;;;;;5105318;28;20068;-47
2024/03/10 00:22:27;;;;;;;2.78;1.00;;;25.10;29.40;;;;;;5109808;28;20176;-46
2024/03/10 00:24:54;;;;;;;3.08;0.95;;;25.00;29.20;;;;;;5109051;28;20076;-46
2024/03/10 00:27:21;;;;;;;4.85;1.00;;;24.90;28.90;;;;;;5102851;28;20457;-45
2024/03/10 00:29:48;;;;;;;4.45;1.40;;;24.90;29.30;;;;;;5101023;28;20403;-46
2024/03/10 00:32:14;;;;;;;2.58;1.20;;;24.90;29.40;;;;;;5107954;28;20448;-45
2024/03/10 00:34:42;;;;;;;3.13;1.20;;;24.90;29.40;;;;;;5107828;27;20064;-44
2024/03/10 00:37:10;;;;;;;5.57;0.70;;;24.80;30.00;;;;;;5109046;28;20076;-46
2024/03/10 00:39:38;;;;;;;0.88;0.55;;;24.40;30.40;;;;;;5107253;28;20072;-46
2024/03/10 00:42:06;;;;;;;4.10;1.13;;;24.20;30.80;;;;;;5109656;28;20557;-48
2024/03/10 00:44:32;;;;;;;6.40;0.93;;;24.00;30.90;;;;;;5107458;28;20068;-47
2024/03/10 00:46:59;;;;;;;5.15;1.00;;;23.90;30.70;;;;;;5108213;27;20217;-45
2024/03/10 00:49:26;;;;;;;1.80;0.80;;;23.80;31.00;;;;;;5109749;27;20470;-50
2024/03/10 00:51:53;;;;;;;3.33;0.95;;;23.80;31.40;;;;;;5109516;28;20405;-45
2024/03/10 00:54:20;;;;;;;3.97;0.88;;;23.70;30.90;;;;;;5106108;28;20103;-48
2024/03/10 00:56:48;;;;;;;6.75;1.40;;;23.70;31.40;;;;;;5104840;28;20095;-44
2024/03/10 00:59:16;;;;;;;12.93;10.30;;;23.60;31.40;;;;;;5113878;27;20170;-43
2024/03/10 01:01:42;;;;;;;8.45;7.00;;;23.60;32.20;;;;;;5107868;27;20429;-45
2024/03/10 01:04:09;;;;;;;20.67;18.58;;;23.50;32.40;;;;;;5114076;28;20053;-45
2024/03/10 01:06:35;;;;;;;4.10;1.33;;;23.40;32.10;;;;;;5111848;28;20134;-49
2024/03/10 01:09:04;;;;;;;6.47;0.98;;;23.30;32.90;;;;;;5097771;28;20117;-47
2024/03/10 01:11:30;;;;;;;5.55;1.45;;;23.30;33.00;;;;;;5107201;28;20160;-45
2024/03/10 01:13:57;;;;;;;9.63;1.48;;;23.20;33.20;;;;;;5106204;27;20067;-46
2024/03/10 01:16:23;;;;;;;5.38;1.50;;;23.10;32.70;;;;;;5102671;28;20072;-45
2024/03/10 01:18:52;;;;;;;5.45;1.50;;;23.00;33.10;;;;;;5105885;28;20060;-46
2024/03/10 01:21:19;;;;;;;5.85;1.27;;;22.90;32.90;;;;;;5103046;28;20142;-47
2024/03/10 01:23:46;;;;;;;3.50;0.98;;;22.80;32.90;;;;;;5131532;27;20068;-45
2024/03/10 01:26:12;;;;;;;4.03;1.08;;;22.70;33.60;;;;;;5108578;28;20140;-47
2024/03/10 01:28:39;;;;;;;3.65;1.00;;;22.50;33.10;;;;;;5103353;28;20121;-47
2024/03/10 01:31:09;;;;;;;4.85;1.08;;;22.40;33.40;;;;;;5107964;28;20088;-45
2024/03/10 01:33:36;;;;;;;4.85;1.08;;;22.40;33.90;;;;;;5107930;28;20083;-48
2024/03/10 01:36:06;;;;;;;5.82;1.00;;;22.30;34.10;;;;;;5104096;28;20167;-49
2024/03/10 01:38:33;;;;;;;7.47;1.17;;;22.10;34.50;;;;;;5108254;28;20077;-49
2024/03/10 01:40:59;;;;;;;6.10;1.25;;;22.00;34.00;;;;;;5101209;28;20433;-47
2024/03/10 01:43:26;;;;;;;4.35;1.05;;;21.80;35.00;;;;;;5104375;28;20121;-46
2024/03/10 01:46:06;;;;;;;3.95;1.10;;;21.70;35.40;;;;;;5101047;28;20105;-47
2024/03/10 01:48:38;;;;;;;8.55;1.70;;;21.70;36.20;;;;;;5108881;28;20067;-50
2024/03/10 01:51:06;;;;;;;10.70;2.50;;;21.50;37.20;;;;;;5098659;28;20085;-47
2024/03/10 01:53:37;;;;;;;16.42;2.50;;;21.40;37.10;;;;;;5101927;28;20504;-46
2024/03/10 01:56:05;;;;;;;21.80;2.92;;;21.30;37.20;;;;;;5109742;28;20076;-50
2024/03/10 01:58:32;;;;;;;21.02;2.42;;;21.10;37.30;;;;;;5107202;28;20222;-48
2024/03/10 02:01:02;;;;;;;12.55;2.55;;;21.10;38.50;;;;;;5112891;28;20075;-47
2024/03/10 02:03:29;;;;;;;22.70;2.80;;;20.90;37.90;;;;;;5108300;28;20080;-48
2024/03/10 02:05:56;;;;;;;14.85;3.05;;;20.80;38.40;;;;;;5102452;27;20575;-47
2024/03/10 02:08:23;;;;;;;10.90;2.50;;;20.70;38.80;;;;;;5106068;28;20518;-49
2024/03/10 02:10:51;;;;;;;13.85;3.30;;;20.60;40.60;;;;;;5107154;28;20072;-52
2024/03/10 02:13:19;;;;;;;18.23;3.97;;;20.50;40.90;;;;;;5097563;28;20102;-51
2024/03/10 02:16:05;;;;;;;22.85;4.00;;;20.50;40.40;;;;;;5105050;27;20088;-50
2024/03/10 02:18:35;;;;;;;35.70;4.13;;;20.40;40.60;;;;;;5103079;28;20205;-47
2024/03/10 02:21:09;;;;;;;24.52;4.00;;;20.30;40.90;;;;;;5103072;28;20439;-48
2024/03/10 02:23:42;;;;;;;29.65;4.53;;;20.20;41.90;;;;;;5103329;27;20417;-49
2024/03/10 02:26:10;;;;;;;36.00;4.53;;;20.10;42.70;;;;;;5100588;27;20588;-47
2024/03/10 02:28:48;;;;;;;20.50;5.32;;;20.00;42.70;;;;;;5103922;27;20067;-49
2024/03/10 02:47:43;;;;;;;34.78;5.40;;;19.40;43.20;;;;;;5105771;28;20127;-49
2024/03/10 02:50:10;;;;;;;26.25;4.90;;;19.30;44.00;;;;;;5100894;28;20163;-49
2024/03/10 02:52:36;;;;;;;13.98;5.57;;;19.20;44.00;;;;;;5103506;28;20529;-51
2024/03/10 02:55:03;;;;;;;18.52;7.43;;;19.10;44.20;;;;;;5107249;28;20083;-50
2024/03/10 02:57:30;;;;;;;19.65;7.25;;;19.10;44.10;;;;;;5096913;28;20069;-53
2024/03/10 02:59:57;;;;;;;22.33;7.00;;;19.10;43.80;;;;;;5101222;28;20506;-50
2024/03/10 03:02:25;;;;;;;20.70;6.68;;;19.10;43.90;;;;;;5096898;28;20071;-49
2024/03/10 03:04:51;;;;;;;22.27;6.68;;;19.00;44.50;;;;;;5102026;27;20099;-50
2024/03/10 03:07:18;;;;;;;42.70;7.20;;;18.90;45.70;;;;;;5106610;28;20100;-51
2024/03/10 03:09:48;;;;;;;31.80;6.30;;;18.90;45.30;;;;;;5102074;28;20064;-50
2024/03/10 03:12:15;;;;;;;26.92;6.43;;;18.90;45.00;;;;;;5102357;28;20141;-46
2024/03/10 03:14:41;;;;;;;22.92;5.90;;;18.80;45.50;;;;;;5106094;28;20470;-49
2024/03/10 03:17:08;;;;;;;25.95;5.65;;;18.80;46.60;;;;;;5107381;28;20075;-47
2024/03/10 03:19:36;;;;;;;27.35;5.57;;;18.70;46.20;;;;;;5104607;28;20085;-53
2024/03/10 03:22:06;;;;;;;28.88;6.55;;;18.60;46.90;;;;;;5104365;28;20108;-50
2024/03/10 03:24:33;;;;;;;23.55;5.95;;;18.50;46.40;;;;;;5108427;27;20078;-49
2024/03/10 03:27:00;;;;;;;26.55;5.75;;;18.50;46.40;;;;;;5105945;28;20124;-48
2024/03/10 03:29:27;;;;;;;26.35;6.10;;;18.50;46.80;;;;;;5104985;28;20057;-48
2024/03/10 03:31:54;;;;;;;35.88;6.65;;;18.50;47.80;;;;;;5111358;27;20075;-48
2024/03/10 03:34:21;;;;;;;43.38;11.52;;;18.50;48.40;;;;;;5105586;27;20077;-50
2024/03/10 03:36:48;;;;;;;38.20;5.72;;;18.40;48.40;;;;;;5108516;28;20082;-49
2024/03/10 03:39:15;;;;;;;42.83;6.47;;;18.30;48.10;;;;;;5109959;28;20556;-50
2024/03/10 03:41:41;;;;;;;40.55;6.60;;;18.20;47.50;;;;;;5112207;28;20068;-48
2024/03/10 03:44:08;;;;;;;45.97;7.45;;;18.10;47.60;;;;;;5102911;27;20095;-48
2024/03/10 03:46:35;;;;;;;44.72;7.40;;;18.10;47.70;;;;;;5106348;28;20468;-48
2024/03/10 03:49:02;;;;;;;41.90;7.03;;;18.10;48.10;;;;;;5110532;28;20064;-51
2024/03/10 03:51:28;;;;;;;36.20;6.30;;;18.10;49.10;;;;;;5107297;27;20075;-50
2024/03/10 03:53:55;;;;;;;37.30;7.07;;;18.10;49.30;;;;;;5106148;27;20064;-53
2024/03/10 03:56:22;;;;;;;37.55;7.45;;;18.10;48.60;;;;;;5108226;28;20125;-51
2024/03/10 03:58:49;;;;;;;35.55;8.68;;;18.10;49.30;;;;;;5107007;27;20068;-48
2024/03/10 04:01:17;;;;;;;50.67;19.63;;;18.00;47.60;;;;;;5111795;28;20076;-48
2024/03/10 04:03:44;;;;;;;69.05;32.53;;;17.90;48.10;;;;;;5109845;28;20069;-50
2024/03/10 04:06:11;;;;;;;71.55;32.83;;;17.90;48.00;;;;;;5102546;28;20233;-47
2024/03/10 04:08:37;;;;;;;86.25;39.50;;;17.90;48.80;;;;;;5105604;28;20537;-53
2024/03/10 04:11:04;;;;;;;82.78;39.63;;;17.90;48.80;;;;;;5108078;28;20084;-50
2024/03/10 04:13:30;;;;;;;91.15;40.97;;;18.00;48.60;;;;;;5108206;28;20103;-51
2024/03/10 04:15:57;;;;;;;100.47;44.72;;;17.90;48.20;;;;;;5106089;28;20072;-51
2024/03/10 04:18:23;;;;;;;98.10;44.08;;;17.90;49.10;;;;;;5103276;28;20090;-50
2024/03/10 04:20:51;;;;;;;98.43;43.50;;;17.90;48.70;;;;;;5108608;28;20141;-50
2024/03/10 04:23:18;;;;;;;93.45;42.38;;;17.90;49.60;;;;;;5106783;28;20240;-55
2024/03/10 04:25:45;;;;;;;92.63;42.55;;;17.80;49.40;;;;;;5101725;27;20068;-49
2024/03/10 04:28:12;;;;;;;102.10;46.17;;;17.70;50.20;;;;;;5100451;28;20100;-53
2024/03/10 04:30:38;;;;;;;97.53;45.90;;;17.70;50.00;;;;;;5106001;28;20080;-49
2024/03/10 04:33:05;;;;;;;101.15;45.65;;;17.60;50.60;;;;;;5106461;27;20152;-50
2024/03/10 04:35:31;;;;;;;99.88;43.70;;;17.50;50.60;;;;;;5101747;28;20080;-49
2024/03/10 04:37:58;;;;;;;81.28;41.33;;;17.40;52.50;;;;;;5105572;28;20111;-50
2024/03/10 04:40:24;;;;;;;92.70;39.17;;;17.40;51.90;;;;;;5103090;28;20068;-51
2024/03/10 04:42:51;;;;;;;95.63;39.67;;;17.40;50.90;;;;;;5101243;28;20537;-49
2024/03/10 04:45:18;;;;;;;82.65;37.60;;;17.40;51.00;;;;;;5107349;28;20064;-49
2024/03/10 04:47:45;;;;;;;71.22;39.05;;;17.40;51.00;;;;;;5102103;27;20187;-51
2024/03/10 04:50:12;;;;;;;99.85;41.47;;;17.40;50.80;;;;;;5100781;27;20076;-50
2024/03/10 04:52:39;;;;;;;87.82;39.45;;;17.30;50.20;;;;;;5100396;28;20072;-50
2024/03/10 04:55:06;;;;;;;84.65;41.05;;;17.30;50.40;;;;;;5104226;27;20133;-48
2024/03/10 04:57:33;;;;;;;80.68;40.00;;;17.20;51.70;;;;;;5110032;27;20073;-54
2024/03/10 05:00:01;;;;;;;95.07;39.75;;;17.20;51.60;;;;;;5104420;28;20072;-51
2024/03/10 05:02:27;;;;;;;92.65;41.10;;;17.10;51.80;;;;;;5105341;27;20090;-49
2024/03/10 05:04:54;;;;;;;78.57;39.97;;;17.00;51.70;;;;;;5105151;27;20162;-48
2024/03/10 05:07:21;;;;;;;77.45;37.25;;;17.00;52.00;;;;;;5106865;28;20111;-48
2024/03/10 05:09:47;;;;;;;72.43;38.63;;;17.00;52.70;;;;;;5101447;28;20068;-51
2024/03/10 05:12:14;;;;;;;86.38;36.78;;;17.00;52.60;;;;;;5108167;27;20113;-52
2024/03/10 05:14:40;;;;;;;96.53;39.58;;;16.90;52.90;;;;;;5107739;27;20525;-48
2024/03/10 05:17:07;;;;;;;78.78;36.28;;;16.80;52.50;;;;;;5107649;27;20089;-50
2024/03/10 05:19:33;;;;;;;70.65;35.45;;;16.70;53.20;;;;;;5101178;27;20118;-50
2024/03/10 05:22:00;;;;;;;81.53;35.83;;;16.70;53.10;;;;;;5103649;28;20150;-52
2024/03/10 05:24:28;;;;;;;78.60;35.08;;;16.70;54.30;;;;;;5102567;28;20625;-52
2024/03/10 05:26:54;;;;;;;83.57;32.30;;;16.60;54.60;;;;;;5103251;28;20131;-51
2024/03/10 05:29:21;;;;;;;91.35;34.92;;;16.60;54.30;;;;;;5106032;28;20138;-48
2024/03/10 05:31:48;;;;;;;81.68;32.30;;;16.50;54.90;;;;;;5107125;27;20076;-48
2024/03/10 05:34:14;;;;;;;84.13;33.88;;;16.50;52.80;;;;;;5103477;27;20104;-49
2024/03/10 05:36:43;;;;;;;87.65;33.97;;;16.60;52.70;;;;;;5103137;28;20522;-51
2024/03/10 05:39:10;;;;;;;100.72;36.72;;;16.50;54.00;;;;;;5100211;28;20072;-48
2024/03/10 05:41:36;;;;;;;91.38;35.35;;;16.50;53.60;;;;;;5102024;28;20072;-50
2024/03/10 05:44:03;;;;;;;110.20;37.58;;;16.40;54.10;;;;;;5108423;27;20080;-48
2024/03/10 05:46:30;;;;;;;87.32;34.28;;;16.40;53.50;;;;;;5106101;28;20129;-48
2024/03/10 05:48:58;;;;;;;98.07;36.35;;;16.40;54.00;;;;;;5102582;28;20107;-50
2024/03/10 05:51:25;;;;;;;99.55;37.90;;;16.40;53.70;;;;;;5102334;28;20075;-47
2024/03/10 05:53:51;;;;;;;94.88;41.67;;;16.40;54.20;;;;;;5109101;28;20394;-49
2024/03/10 05:56:18;;;;;;;107.20;48.45;;;16.40;54.30;;;;;;5098036;28;20075;-50
2024/03/10 05:58:45;;;;;;;117.95;53.72;;;16.30;54.60;;;;;;5106930;28;20084;-53
2024/03/10 06:01:14;;;;;;;113.93;56.30;;;16.20;55.10;;;;;;5107060;28;20515;-50
2024/03/10 06:03:42;;;;;;;124.40;56.33;;;16.20;55.00;;;;;;5107401;28;20080;-51
2024/03/10 06:06:09;;;;;;;115.07;55.83;;;16.20;55.20;;;;;;5108637;28;20411;-48
2024/03/10 06:08:36;;;;;;;116.47;52.92;;;16.20;55.20;;;;;;5107293;27;20522;-51
2024/03/10 06:11:02;;;;;;;113.25;52.28;;;16.20;55.00;;;;;;5106589;28;20068;-48
2024/03/10 06:13:30;;;;;;;123.57;52.20;;;16.10;54.90;;;;;;5107094;28;20451;-51
2024/03/10 06:15:57;;;;;;;112.85;51.05;;;16.00;54.80;;;;;;5105829;28;20425;-51
2024/03/10 06:25:22;;;;;;;124.68;53.00;;;15.90;56.20;;;;;;5105721;28;20068;-50
2024/03/10 06:26:39;;;;;;;123.47;50.40;;;15.70;56.70;;;;;;5103720;28;20171;-49
2024/03/10 06:29:07;;;;;;;121.93;50.67;;;15.70;56.80;;;;;;5108869;28;20071;-49
2024/03/10 06:31:33;;;;;;;114.45;50.78;;;15.70;57.30;;;;;;5108651;28;20406;-51
2024/03/10 06:34:00;;;;;;;115.90;46.53;;;15.60;57.60;;;;;;5091523;28;20092;-48
2024/03/10 06:36:27;;;;;;;118.20;46.65;;;15.60;57.30;;;;;;5104112;28;20149;-48
2024/03/10 06:38:53;;;;;;;120.00;46.60;;;15.60;56.50;;;;;;5101602;28;21413;-49
2024/03/10 06:41:20;;;;;;;105.93;45.83;;;15.60;56.70;;;;;;5107822;28;20107;-54
2024/03/10 06:43:47;;;;;;;125.43;46.42;;;15.60;57.70;;;;;;5108410;28;20060;-53
2024/03/10 06:46:13;;;;;;;124.40;44.20;;;15.50;58.10;;;;;;5098535;28;20076;-48
2024/03/10 06:48:39;;;;;;;124.15;44.92;;;15.50;58.00;;;;;;5096122;28;20143;-48
2024/03/10 06:51:06;;;;;;;111.93;45.90;;;15.50;58.20;;;;;;5105835;28;20514;-46
2024/03/10 06:53:33;;;;;;;106.70;45.30;;;15.40;58.20;;;;;;5108055;28;20150;-49
2024/03/10 06:56:00;;;;;;;129.13;44.13;;;15.40;58.30;;;;;;5107451;28;20080;-46
2024/03/10 06:58:27;;;;;;;116.18;45.97;;;15.40;58.30;;;;;;5109147;28;20069;-48
2024/03/10 07:00:54;;;;;;;128.52;47.30;;;15.40;57.80;;;;;;5110900;28;20103;-48
2024/03/10 07:03:21;;;;;;;136.18;48.33;;;15.40;57.40;;;;;;5127107;27;21230;-51
2024/03/10 07:05:47;;;;;;;125.57;48.50;;;15.40;57.70;;;;;;5115081;28;20097;-52
2024/03/10 07:08:15;;;;;;;113.28;46.92;;;15.40;57.80;;;;;;5113094;28;20153;-48
2024/03/10 07:10:42;;;;;;;128.40;48.65;;;15.40;57.60;;;;;;5115904;28;20984;-51
2024/03/10 07:13:09;;;;;;;143.32;50.75;;;15.40;57.00;;;;;;5110705;28;20068;-52
2024/03/10 07:15:35;;;;;;;108.20;45.40;;;15.40;56.90;;;;;;5105055;28;20076;-49
2024/03/10 07:18:04;;;;;;;126.10;50.15;;;15.40;57.40;;;;;;5113360;28;20075;-48
2024/03/10 07:20:31;;;;;;;137.77;60.10;;;15.40;57.20;;;;;;5111434;28;20079;-46
2024/03/10 07:22:58;;;;;;;127.55;49.17;;;15.30;57.30;;;;;;5116199;27;20111;-52
2024/03/10 07:25:25;;;;;;;113.95;50.78;;;15.20;58.00;;;;;;5115946;28;20072;-47
2024/03/10 07:27:54;;;;;;;150.90;53.85;;;15.10;57.80;;;;;;5113671;28;20111;-46
2024/03/10 07:30:21;;;;;;;134.57;58.35;;;15.10;57.60;;;;;;5112349;28;20113;-48
2024/03/10 07:32:48;;;;;;;148.27;58.67;;;15.10;57.80;;;;;;5112160;28;20545;-55
2024/03/10 07:35:16;;;;;;;127.15;53.95;;;15.10;57.50;;;;;;5112099;27;20064;-48
2024/03/10 07:37:43;;;;;;;123.72;51.80;;;15.10;58.00;;;;;;5109901;28;20068;-47
2024/03/10 07:40:20;;;;;;;134.20;54.13;;;15.10;57.20;;;;;;5111785;28;20068;-48
2024/03/10 07:42:47;;;;;;;121.25;50.35;;;15.10;57.00;;;;;;5111408;28;20478;-46
2024/03/10 07:45:18;;;;;;;135.98;50.65;;;15.00;58.50;;;;;;5109295;28;20179;-49
2024/03/10 07:47:49;;;;;;;125.20;49.58;;;15.00;57.80;;;;;;5112418;28;20108;-50
2024/03/10 07:50:17;;;;;;;112.68;47.67;;;14.90;58.40;;;;;;5099647;28;20078;-49
2024/03/10 07:52:46;;;;;;;127.15;46.95;;;14.90;56.80;;;;;;5112105;28;20083;-49
2024/03/10 07:55:12;;;;;;;135.32;45.40;;;15.00;56.70;;;;;;5108751;28;20414;-51
2024/03/10 07:57:39;;;;;;;142.25;46.60;;;15.00;56.60;;;;;;5107058;28;20087;-48
2024/03/10 08:00:16;;;;;;;104.22;41.10;;;15.00;56.60;;;;;;5109019;27;20084;-59
2024/03/10 08:02:43;;;;;;;;;;;14.90;56.80;;;;;;5112094;28;20067;-53
2024/03/10 08:05:11;;;;;;;101.70;35.35;;;14.90;56.50;;;;;;5103766;28;19997;-46
2024/03/10 08:07:41;;;;;;;83.45;32.45;;;14.90;55.90;;;;;;5106108;28;20549;-53
2024/03/10 08:10:12;;;;;;;89.93;31.75;;;14.90;55.40;;;;;;5110183;27;20076;-49
2024/03/10 08:12:40;;;;;;;86.75;28.17;;;14.90;54.70;;;;;;5095120;28;20163;-49
2024/03/10 08:15:08;;;;;;;81.82;29.95;;;14.80;55.30;;;;;;5100687;28;20091;-48
2024/03/10 08:17:36;;;;;;;81.05;29.42;;;14.70;56.50;;;;;;5111402;28;20093;-49
2024/03/10 08:20:06;;;;;;;87.45;30.02;;;14.60;56.60;;;;;;5107870;28;21104;-52
2024/03/10 08:22:36;;;;;;;90.57;29.48;;;14.60;57.00;;;;;;5112493;28;20122;-48
2024/03/10 08:25:06;;;;;;;70.80;26.65;;;14.60;56.30;;;;;;5109005;28;20071;-49
2024/03/10 08:27:34;;;;;;;59.20;21.77;;;14.60;56.50;;;;;;5110749;28;20104;-50
2024/03/10 08:30:15;;;;;;;55.22;21.85;;;14.70;57.30;;;;;;5101407;28;20072;-51
2024/03/10 08:32:43;;;;;;;61.58;22.42;;;14.70;57.50;;;;;;5107958;28;20581;-56
2024/03/10 08:35:09;;;;;;;62.63;21.63;;;14.80;57.30;;;;;;5104820;28;20083;-50
2024/03/10 08:37:37;;;;;;;58.30;22.10;;;14.80;57.00;;;;;;5109154;28;20072;-47
2024/03/10 08:40:11;;;;;;;68.93;20.90;;;14.70;57.20;;;;;;5112195;28;20079;-52
2024/03/10 08:42:39;;;;;;;91.35;35.20;;;14.60;58.40;;;;;;5107106;28;20104;-49
2024/03/10 08:45:10;;;;;;;72.15;32.38;;;14.60;58.10;;;;;;5098633;28;20068;-51
2024/03/10 08:47:40;;;;;;;43.85;14.75;;;14.60;58.20;;;;;;5109173;28;20096;-49
2024/03/10 08:50:09;;;;;;;43.53;13.00;;;14.40;57.40;;;;;;5100683;28;20121;-52
2024/03/10 08:52:38;;;;;;;30.52;9.93;;;14.40;57.60;;;;;;5100999;28;20068;-51
2024/03/10 08:55:06;;;;;;;39.33;10.13;;;14.50;57.50;;;;;;5111506;28;20125;-50
2024/03/10 08:57:35;;;;;;;33.47;8.75;;;14.70;57.20;;;;;;5111598;28;20064;-50
2024/03/10 09:00:02;;;;;;;31.92;8.25;;;14.70;57.00;;;;;;5094473;28;20094;-50
2024/03/10 09:02:30;;;;;;;29.52;7.75;;;14.80;57.00;;;;;;5108446;28;20068;-52
2024/03/10 09:04:57;;;;;;;17.75;5.28;;;14.80;57.00;;;;;;5096966;28;20281;-52
2024/03/10 09:07:25;;;;;;;14.40;5.18;;;14.80;57.00;;;;;;5107317;28;20119;-50
2024/03/10 09:09:51;;;;;;;38.92;5.10;;;14.80;57.30;;;;;;5100038;28;20415;-51
2024/03/10 09:12:18;;;;;;;14.05;3.55;;;14.80;57.70;;;;;;5109237;28;20065;-52
2024/03/10 09:14:45;;;;;;;21.33;4.07;;;14.70;57.90;;;;;;5110587;28;20068;-52
2024/03/10 09:17:11;;;;;;;13.65;2.97;;;14.70;57.90;;;;;;5101181;28;20068;-50
2024/03/10 09:19:40;;;;;;;6.72;2.10;;;14.70;57.60;;;;;;5110417;28;20068;-50
2024/03/10 09:22:10;;;;;;;9.38;4.30;;;14.70;57.40;;;;;;5109075;28;20150;-49
2024/03/10 09:24:37;;;;;;;10.77;1.98;;;14.80;57.00;;;;;;5108837;28;20163;-53
2024/03/10 09:27:03;;;;;;;12.55;1.90;;;14.90;57.00;;;;;;5105923;28;20182;-51
2024/03/10 09:29:31;;;;;;;10.25;2.65;;;14.90;56.80;;;;;;5102398;27;20126;-51
2024/03/10 09:31:58;;;;;;;6.32;2.30;;;15.00;57.00;;;;;;5102181;28;20425;-51
2024/03/10 09:34:25;;;;;;;5.93;1.75;;;15.00;57.10;;;;;;5097161;28;20455;-51
2024/03/10 09:36:54;;;;;;;11.80;2.30;;;15.00;57.20;;;;;;5109171;28;20064;-49
2024/03/10 09:39:23;;;;;;;9.63;2.53;;;15.00;57.60;;;;;;5109821;28;20140;-51
2024/03/10 09:41:51;;;;;;;9.75;2.20;;;15.00;57.80;;;;;;5104877;28;20088;-50
2024/03/10 09:44:19;;;;;;;6.53;2.30;;;14.90;57.80;;;;;;5109684;28;20160;-48
2024/03/10 09:46:49;;;;;;;12.32;2.70;;;14.80;57.60;;;;;;5104871;28;20557;-48
2024/03/10 09:49:20;;;;;;;6.75;1.80;;;14.80;57.20;;;;;;5093509;28;20611;-52
2024/03/10 09:51:51;;;;;;;14.95;2.45;;;14.70;56.90;;;;;;5093249;28;20087;-52
2024/03/10 09:54:18;;;;;;;7.72;1.92;;;14.70;57.00;;;;;;5099918;28;20071;-52
2024/03/10 09:56:46;;;;;;;5.90;1.88;;;14.60;56.50;;;;;;5108682;28;20102;-51
2024/03/10 09:59:26;;;;;;;13.30;2.25;;;14.60;56.30;;;;;;5095541;28;20090;-48
2024/03/10 10:01:54;;;;;;;7.75;1.80;;;14.60;56.20;;;;;;5095620;28;20080;-50
2024/03/10 10:04:25;;;;;;;12.18;1.80;;;14.60;55.30;;;;;;5108374;28;20071;-51
2024/03/10 10:06:55;;;;;;;6.53;2.20;;;14.50;55.40;;;;;;5107922;28;20810;-50
2024/03/10 10:09:26;;;;;;;35.30;18.88;;;14.50;55.20;;;;;;5111180;28;20177;-52
2024/03/10 10:11:56;;;;;;;35.60;18.25;;;14.50;55.00;;;;;;5110217;28;20557;-52
2024/03/10 10:14:27;;;;;;;8.68;2.00;;;14.50;54.70;;;;;;5109851;28;20168;-51
2024/03/10 10:16:58;;;;;;;7.32;2.55;;;14.40;55.00;;;;;;5108254;28;20076;-49
2024/03/10 10:19:26;;;;;;;8.93;2.05;;;14.50;54.90;;;;;;5109966;28;20082;-49
2024/03/10 10:21:53;;;;;;;8.68;1.98;;;14.40;54.90;;;;;;5096893;28;20490;-50
2024/03/10 10:24:20;;;;;;;8.13;1.85;;;14.40;55.40;;;;;;5099976;28;20072;-50
2024/03/10 10:27:05;;;;;;;10.02;2.50;;;14.40;55.60;;;;;;5110395;28;20096;-49
2024/03/10 10:29:47;;;;;;;9.05;2.03;;;14.40;55.90;;;;;;5109057;28;20117;-51
2024/03/10 10:32:14;;;;;;;12.65;2.20;;;14.30;55.70;;;;;;5108366;28;20084;-53
2024/03/10 10:34:40;;;;;;;13.25;2.08;;;14.30;56.00;;;;;;5107528;28;20071;-51
2024/03/10 10:37:07;;;;;;;10.75;2.50;;;14.30;56.50;;;;;;5108606;28;20060;-52
2024/03/10 10:39:34;;;;;;;9.45;2.35;;;14.20;56.20;;;;;;5109090;28;20394;-48
2024/03/10 10:42:01;;;;;;;12.10;2.63;;;14.10;56.10;;;;;;5108702;28;20064;-50
2024/03/10 10:44:27;;;;;;;16.23;3.30;;;13.90;57.50;;;;;;5107178;28;20076;-49
2024/03/10 10:46:54;;;;;;;9.50;2.75;;;13.80;57.30;;;;;;5091448;28;20104;-48
2024/03/10 10:49:21;;;;;;;16.15;3.20;;;13.80;57.70;;;;;;5109258;28;20076;-52
2024/03/10 10:51:50;;;;;;;6.93;2.42;;;13.80;57.60;;;;;;5109665;28;20108;-53
2024/03/10 10:54:20;;;;;;;11.73;2.85;;;13.80;57.80;;;;;;5098556;28;20098;-52
2024/03/10 10:56:57;;;;;;;9.63;3.03;;;13.90;57.70;;;;;;5108867;28;20064;-49
2024/03/10 10:59:25;;;;;;;15.25;2.75;;;13.90;57.70;;;;;;5106509;28;20571;-49
2024/03/10 11:01:58;;;;;;;11.50;2.80;;;13.90;57.90;;;;;;5100363;28;20158;-49
2024/03/10 11:04:29;;;;;;;18.92;2.90;;;13.90;58.70;;;;;;5105813;28;20166;-49
2024/03/10 11:06:57;;;;;;;11.93;2.85;;;13.80;59.60;;;;;;5107807;28;20441;-51
2024/03/10 11:09:30;;;;;;;7.10;2.72;;;13.70;59.40;;;;;;5106295;28;20100;-58
2024/03/10 11:11:58;;;;;;;11.80;3.20;;;13.60;58.30;;;;;;5108978;28;20176;-50
2024/03/10 11:14:28;;;;;;;12.20;3.13;;;13.60;57.60;;;;;;5101689;28;20122;-51
2024/03/10 11:17:15;;;;;;;14.32;3.55;;;13.60;57.60;;;;;;5103977;28;20533;-51
2024/03/10 11:19:47;;;;;;;15.52;3.28;;;13.60;57.70;;;;;;5108878;28;20079;-51
2024/03/10 11:22:17;;;;;;;10.65;2.75;;;13.50;58.30;;;;;;5108340;28;20112;-52
2024/03/10 11:25:08;;;;;;;13.40;2.80;;;13.60;58.30;;;;;;5108043;28;20060;-48
2024/03/10 11:27:45;;;;;;;14.10;3.30;;;13.60;57.70;;;;;;5106263;28;20096;-50
2024/03/10 11:30:44;;;;;;;33.00;8.45;;;13.50;58.40;;;;;;5105492;28;20086;-49
2024/03/10 11:33:13;;;;;;;24.55;7.00;;;13.40;58.20;;;;;;5102851;28;20485;-49
2024/03/10 11:35:40;;;;;;;18.73;6.55;;;13.40;57.30;;;;;;5104454;28;20074;-52
2024/03/10 11:38:11;;;;;;;33.47;6.00;;;13.40;56.80;;;;;;5100281;28;20076;-52
2024/03/10 11:40:37;;;;;;;22.92;4.45;;;13.40;55.90;;;;;;5097080;28;20141;-52
2024/03/10 11:43:04;;;;;;;20.50;4.28;;;13.30;55.00;;;;;;5102044;28;20092;-52
2024/03/10 11:45:31;;;;;;;15.25;4.60;;;13.40;55.40;;;;;;5111312;28;20111;-48
2024/03/10 11:47:58;;;;;;;14.40;3.97;;;13.40;55.70;;;;;;5111625;28;20099;-51
2024/03/10 11:50:25;;;;;;;17.75;4.07;;;13.40;55.20;;;;;;5110368;28;20076;-51
2024/03/10 11:52:51;;;;;;;15.95;3.70;;;13.30;56.10;;;;;;5110907;28;20156;-53
2024/03/10 11:55:19;;;;;;;9.95;3.20;;;13.30;55.00;;;;;;5109339;28;20068;-51
2024/03/10 11:57:51;;;;;;;14.52;3.97;;;13.30;54.50;;;;;;5112175;28;20118;-49
2024/03/10 12:00:20;;;;;;;8.80;3.05;;;13.30;54.50;;;;;;5108829;28;20163;-49
2024/03/10 12:02:49;;;;;;;11.00;3.13;;;13.30;54.70;;;;;;5104233;28;20068;-48
2024/03/10 12:05:15;;;;;;;17.30;3.35;;;13.30;54.10;;;;;;5111388;28;20068;-52
2024/03/10 12:07:48;;;;;;;16.45;3.00;;;13.30;54.30;;;;;;5106149;28;20183;-48
2024/03/10 12:10:20;;;;;;;11.02;3.13;;;13.20;54.10;;;;;;5112445;28;20553;-49
2024/03/10 12:12:53;;;;;;;13.88;2.78;;;13.30;54.20;;;;;;5101865;28;20096;-51
2024/03/10 12:15:21;;;;;;;10.15;2.50;;;13.40;53.50;;;;;;5110512;28;20166;-50
2024/03/10 12:17:49;;;;;;;7.65;2.60;;;13.40;53.30;;;;;;5110031;28;20107;-48
2024/03/10 12:20:16;;;;;;;14.88;2.85;;;13.40;53.80;;;;;;5109516;28;20076;-48
2024/03/10 12:22:49;;;;;;;9.80;2.45;;;13.30;53.80;;;;;;5106029;28;20126;-57
2024/03/10 12:25:18;;;;;;;15.00;2.30;;;13.30;54.10;;;;;;5102091;28;20167;-49
2024/03/10 12:27:44;;;;;;;9.23;2.47;;;13.30;54.40;;;;;;5110169;28;20437;-51
2024/03/10 12:30:12;;;;;;;7.43;2.40;;;13.30;54.90;;;;;;5111584;28;20459;-49
2024/03/10 12:32:52;;;;;;;13.57;2.70;;;13.30;55.30;;;;;;5111734;27;20101;-49
2024/03/10 12:35:19;;;;;;;13.55;3.10;;;13.30;55.50;;;;;;5109245;28;20083;-50
2024/03/10 12:37:47;;;;;;;11.45;3.15;;;13.30;55.90;;;;;;5104937;28;20108;-49
2024/03/10 12:40:17;;;;;;;12.15;3.20;;;13.40;56.30;;;;;;5111244;28;20408;-49
2024/03/10 12:42:46;;;;;;;11.35;2.75;;;13.30;56.30;;;;;;5110475;27;20072;-52
2024/03/10 12:45:15;;;;;;;12.88;3.15;;;13.20;56.60;;;;;;5108963;28;20608;-49
2024/03/10 12:47:46;;;;;;;16.75;3.45;;;13.10;56.70;;;;;;5111035;28;20187;-49
2024/03/10 12:50:13;;;;;;;16.90;3.28;;;13.10;56.70;;;;;;5105881;28;20072;-49
2024/03/10 12:52:40;;;;;;;15.32;3.30;;;13.10;57.10;;;;;;5111477;28;20083;-52
2024/03/10 12:55:11;;;;;;;21.63;4.00;;;13.20;57.10;;;;;;5108324;28;20592;-52
2024/03/10 12:57:41;;;;;;;14.18;4.40;;;13.20;57.40;;;;;;5110320;28;20072;-50
2024/03/10 13:00:28;;;;;;;25.95;4.38;;;13.10;57.30;;;;;;5110355;28;20068;-50